createdAt,value
2022-09-16T00:02:17.521Z,87.86
2022-09-16T00:05:20.634Z,87.81
2022-09-16T00:08:22.872Z,87.54
2022-09-16T00:11:24.794Z,87.69
2022-09-16T00:14:26.390Z,87.53
2022-09-16T00:17:30.058Z,87.62
2022-09-16T00:20:32.950Z,87.72
2022-09-16T00:23:34.695Z,87.86
2022-09-16T00:26:38.562Z,88.20
2022-09-16T00:29:40.503Z,88.21
2022-09-16T00:32:41.997Z,88.77
2022-09-16T00:35:45.148Z,88.55
2022-09-16T00:38:50.537Z,88.76
2022-09-16T00:41:52.345Z,89.17
2022-09-16T00:44:56.252Z,89.10
2022-09-16T00:47:59.584Z,89.43
2022-09-16T00:51:04.919Z,90.09
2022-09-16T00:54:10.006Z,90.05
2022-09-16T00:57:13.500Z,90.22
2022-09-16T01:00:15.145Z,90.52
2022-09-16T01:03:16.827Z,90.62
2022-09-16T01:06:19.979Z,90.76
2022-09-16T01:09:23.389Z,90.71
2022-09-16T01:12:27.873Z,91.06
2022-09-16T01:15:32.713Z,91.15
2022-09-16T01:18:39.893Z,91.16
2022-09-16T01:21:45.411Z,91.48
2022-09-16T01:24:50.746Z,91.65
2022-09-16T01:28:09.117Z,91.43
2022-09-16T01:31:15.783Z,91.78
2022-09-16T01:34:21.051Z,91.49
2022-09-16T01:37:29.158Z,91.82
2022-09-16T01:40:34.210Z,91.71
2022-09-16T01:43:44.313Z,91.67
2022-09-16T01:46:48.696Z,91.71
2022-09-16T01:49:57.974Z,91.87
2022-09-16T01:53:05.000Z,91.69
2022-09-16T01:56:09.643Z,91.64
2022-09-16T01:59:16.653Z,91.48
2022-09-16T02:02:21.507Z,91.62
2022-09-16T02:05:24.800Z,91.50
2022-09-16T02:08:28.833Z,91.61
2022-09-16T02:11:30.866Z,91.66
2022-09-16T02:14:33.881Z,91.49
2022-09-16T02:17:38.881Z,91.70
2022-09-16T02:20:42.778Z,92.46
2022-09-16T02:23:46.484Z,92.63
2022-09-16T02:26:52.020Z,92.82
2022-09-16T02:29:56.433Z,93.40
2022-09-16T02:33:00.396Z,93.27
2022-09-16T02:36:03.421Z,93.56
2022-09-16T02:39:08.732Z,93.64
2022-09-16T02:42:10.383Z,93.40
2022-09-16T02:45:12.607Z,93.13
2022-09-16T02:48:20.386Z,93.41
2022-09-16T02:51:28.554Z,93.39
2022-09-16T02:54:36.462Z,93.48
2022-09-16T02:57:38.321Z,93.52
2022-09-16T03:00:41.479Z,93.58
2022-09-16T03:03:44.465Z,93.24
2022-09-16T03:06:46.402Z,93.01
2022-09-16T03:09:49.299Z,92.85
2022-09-16T03:12:56.551Z,93.11
2022-09-16T03:16:04.418Z,92.87
2022-09-16T03:19:12.828Z,92.94
2022-09-16T03:22:19.245Z,92.71
2022-09-16T03:25:25.847Z,92.89
2022-09-16T03:28:32.280Z,92.99
2022-09-16T03:31:37.057Z,92.97
2022-09-16T03:34:45.177Z,93.09
2022-09-16T03:37:49.007Z,92.87
2022-09-16T03:40:50.993Z,92.80
2022-09-16T03:43:53.253Z,93.10
2022-09-16T03:46:54.660Z,93.20
2022-09-16T03:50:04.707Z,93.14
2022-09-16T03:53:06.195Z,93.01
2022-09-16T03:56:07.905Z,93.07
2022-09-16T03:59:09.621Z,93.08
2022-09-16T04:02:11.241Z,93.05
2022-09-16T04:05:14.204Z,92.96
2022-09-16T04:08:15.670Z,93.34
2022-09-16T04:11:17.738Z,93.24
2022-09-16T04:14:20.346Z,93.44
2022-09-16T04:17:22.124Z,93.57
2022-09-16T04:20:25.047Z,93.63
2022-09-16T04:23:27.245Z,93.76
2022-09-16T04:26:28.685Z,93.83
2022-09-16T04:29:31.214Z,93.70
2022-09-16T04:32:32.680Z,93.89
2022-09-16T04:35:35.543Z,94.08
2022-09-16T04:38:37.482Z,93.92
2022-09-16T04:41:39.181Z,94.21
2022-09-16T04:44:40.674Z,94.01
2022-09-16T04:47:42.866Z,93.94
2022-09-16T04:50:45.761Z,93.90
2022-09-16T04:53:47.333Z,94.15
2022-09-16T04:56:48.913Z,94.72
2022-09-16T04:59:50.400Z,95.14
2022-09-16T05:02:54.508Z,95.57
2022-09-16T05:06:08.217Z,96.20
2022-09-16T05:09:13.483Z,96.39
2022-09-16T05:12:14.908Z,96.27
2022-09-16T05:15:16.542Z,96.62
2022-09-16T05:18:18.229Z,96.54
2022-09-16T05:21:22.163Z,96.42
2022-09-16T05:24:26.490Z,96.49
2022-09-16T05:27:32.458Z,96.76
2022-09-16T05:30:34.009Z,96.57
2022-09-16T05:33:35.776Z,96.81
2022-09-16T05:36:39.256Z,96.69
2022-09-16T05:39:40.912Z,96.54
2022-09-16T05:42:42.535Z,96.91
2022-09-16T05:45:44.276Z,96.91
2022-09-16T05:48:46.965Z,96.94
2022-09-16T05:51:50.407Z,96.77
2022-09-16T05:54:51.885Z,96.61
2022-09-16T05:57:53.346Z,96.62
2022-09-16T06:00:58.324Z,96.58
2022-09-16T06:04:00.944Z,96.84
2022-09-16T06:07:03.859Z,96.84
2022-09-16T06:10:06.004Z,96.80
2022-09-16T06:13:07.832Z,96.70
2022-09-16T06:16:10.499Z,96.87
2022-09-16T06:19:13.639Z,96.76
2022-09-16T06:22:16.907Z,96.91
2022-09-16T06:25:18.930Z,96.68
2022-09-16T06:28:20.832Z,96.94
2022-09-16T06:31:23.787Z,96.85
2022-09-16T06:34:26.880Z,96.88
2022-09-16T06:37:30.369Z,96.58
2022-09-16T06:40:31.828Z,96.44
2022-09-16T06:43:34.248Z,96.59
2022-09-16T06:46:35.875Z,96.27
2022-09-16T06:49:37.524Z,96.10
2022-09-16T06:52:40.547Z,96.18
2022-09-16T06:55:42.045Z,95.96
2022-09-16T06:58:44.979Z,96.16
2022-09-16T07:01:46.733Z,96.02
2022-09-16T07:04:48.451Z,96.17
2022-09-16T07:07:53.053Z,96.14
2022-09-16T07:10:58.101Z,96.52
2022-09-16T07:14:02.835Z,96.60
2022-09-16T07:17:04.373Z,97.09
2022-09-16T07:20:06.565Z,96.91
2022-09-16T07:23:09.532Z,96.73
2022-09-16T07:26:11.988Z,96.84
2022-09-16T07:29:14.947Z,96.26
2022-09-16T07:32:16.805Z,96.04
2022-09-16T07:35:18.575Z,96.09
2022-09-16T07:38:21.681Z,95.82
2022-09-16T07:41:24.178Z,95.63
2022-09-16T07:44:25.762Z,95.69
2022-09-16T07:47:27.210Z,95.62
2022-09-16T07:50:28.857Z,94.96
2022-09-16T07:53:32.499Z,94.85
2022-09-16T07:56:35.073Z,95.04
2022-09-16T07:59:36.603Z,94.59
2022-09-16T08:02:38.620Z,94.11
2022-09-16T08:05:40.332Z,94.14
2022-09-16T08:08:44.323Z,94.31
2022-09-16T08:11:46.168Z,93.82
2022-09-16T08:14:48.145Z,93.92
2022-09-16T08:17:50.017Z,92.93
2022-09-16T08:20:51.618Z,93.01
2022-09-16T08:23:54.954Z,92.30
2022-09-16T08:30:06.030Z,91.79
2022-09-16T08:33:07.768Z,91.79
2022-09-16T08:36:12.007Z,91.51
2022-09-16T08:39:15.221Z,90.80
2022-09-16T08:42:29.890Z,91.04
2022-09-16T08:45:36.119Z,90.29
2022-09-16T08:48:42.267Z,90.43
2022-09-16T08:51:46.690Z,89.21
2022-09-16T08:54:51.801Z,89.54
2022-09-16T08:57:57.410Z,88.95
2022-09-16T09:01:01.131Z,88.32
2022-09-16T09:04:03.184Z,88.02
2022-09-16T09:07:09.887Z,86.59
2022-09-16T09:10:18.335Z,86.59
2022-09-16T09:13:29.039Z,85.55
2022-09-16T09:16:37.821Z,85.67
2022-09-16T09:19:46.510Z,85.85
2022-09-16T09:23:04.897Z,84.08
2022-09-16T09:26:11.702Z,84.35
2022-09-16T09:29:25.838Z,83.58
2022-09-16T09:32:46.013Z,81.24
2022-09-16T09:35:57.334Z,81.73
2022-09-16T09:39:06.472Z,81.53
2022-09-16T09:42:13.054Z,78.30
2022-09-16T09:45:20.493Z,77.76
2022-09-16T09:48:23.841Z,78.31
2022-09-16T09:51:29.244Z,78.45
2022-09-16T09:54:31.716Z,79.19
2022-09-16T09:57:38.030Z,79.23
2022-09-16T10:00:39.520Z,78.27
2022-09-16T10:03:41.317Z,78.05
2022-09-16T10:06:43.701Z,75.62
2022-09-16T10:09:48.013Z,75.01
2022-09-16T10:12:51.548Z,74.64
2022-09-16T10:15:55.605Z,73.16
2022-09-16T10:19:00.820Z,73.65
2022-09-16T10:22:09.807Z,70.38
2022-09-16T10:25:22.207Z,69.98
2022-09-16T10:28:26.497Z,69.91
2022-09-16T10:31:33.576Z,69.04
2022-09-16T10:34:38.337Z,69.34
2022-09-16T10:37:40.932Z,67.76
2022-09-16T10:40:50.843Z,66.19
2022-09-16T10:43:54.761Z,66.91
2022-09-16T10:46:57.787Z,66.81
2022-09-16T10:50:02.109Z,67.21
2022-09-16T10:53:04.188Z,65.02
2022-09-16T10:56:06.399Z,65.11
2022-09-16T10:59:10.898Z,64.01
2022-09-16T11:05:28.190Z,64.33
2022-09-16T11:08:48.365Z,63.67
2022-09-16T11:11:56.940Z,63.91
2022-09-16T11:15:05.872Z,63.80
2022-09-16T11:18:20.424Z,63.27
2022-09-16T11:21:36.339Z,62.95
2022-09-16T11:24:46.210Z,62.36
2022-09-16T11:27:54.862Z,64.07
2022-09-16T11:31:04.230Z,60.13
2022-09-16T11:34:10.256Z,60.08
2022-09-16T11:37:17.721Z,58.73
2022-09-16T11:40:25.887Z,59.62
2022-09-16T11:43:38.999Z,59.91
2022-09-16T11:46:46.845Z,59.70
2022-09-16T11:49:57.999Z,59.41
2022-09-16T11:53:08.384Z,60.55
2022-09-16T11:56:14.179Z,61.43
2022-09-16T11:59:20.916Z,60.07
2022-09-16T12:02:26.367Z,58.82
2022-09-16T12:05:30.851Z,59.68
2022-09-16T12:08:34.762Z,60.42
2022-09-16T12:11:39.698Z,59.74
2022-09-16T12:14:42.901Z,58.83
2022-09-16T12:17:50.672Z,57.88
2022-09-16T12:20:54.435Z,59.04
2022-09-16T12:23:57.856Z,57.49
2022-09-16T12:27:04.168Z,57.94
2022-09-16T12:30:12.000Z,57.49
2022-09-16T12:33:17.830Z,58.55
2022-09-16T12:36:23.864Z,59.49
2022-09-16T12:39:25.805Z,59.33
2022-09-16T12:42:54.097Z,59.31
2022-09-16T12:46:10.537Z,58.85
2022-09-16T12:49:26.734Z,59.62
2022-09-16T12:52:38.032Z,59.80
2022-09-16T12:55:56.031Z,60.82
2022-09-16T12:59:07.101Z,57.49
2022-09-16T13:02:12.604Z,55.51
2022-09-16T13:05:20.700Z,55.44
2022-09-16T13:08:24.215Z,55.69
2022-09-16T13:12:16.635Z,56.15
2022-09-16T13:14:51.571Z,55.36
2022-09-16T13:17:54.791Z,56.86
2022-09-16T13:20:59.112Z,58.06
2022-09-16T13:24:04.178Z,58.69
2022-09-16T13:27:23.020Z,59.61
2022-09-16T13:30:35.003Z,59.32
2022-09-16T13:33:37.002Z,59.58
2022-09-16T13:36:42.042Z,59.80
2022-09-16T13:39:47.205Z,59.02
2022-09-16T13:42:51.630Z,60.17
2022-09-16T13:46:02.210Z,59.61
2022-09-16T13:49:11.874Z,60.33
2022-09-16T13:52:19.271Z,60.40
2022-09-16T13:55:22.041Z,59.53
2022-09-16T13:58:28.423Z,60.27
2022-09-16T14:01:48.881Z,60.24
2022-09-16T14:05:05.337Z,59.97
2022-09-16T14:08:12.139Z,59.94
2022-09-16T14:11:16.498Z,59.73
2022-09-16T14:14:43.193Z,59.81
2022-09-16T14:17:42.538Z,60.06
2022-09-16T14:20:52.986Z,58.54
2022-09-16T14:24:06.723Z,58.54
2022-09-16T14:27:18.353Z,59.23
2022-09-16T14:30:19.984Z,59.42
2022-09-16T14:33:24.420Z,59.29
2022-09-16T14:36:27.180Z,59.31
2022-09-16T14:39:30.780Z,59.20
2022-09-16T14:42:32.570Z,60.04
2022-09-16T14:45:36.598Z,59.39
2022-09-16T14:48:40.761Z,59.44
2022-09-16T14:51:44.111Z,58.68
2022-09-16T14:54:47.695Z,57.70
2022-09-16T14:57:49.784Z,58.36
2022-09-16T15:00:53.756Z,59.01
2022-09-16T15:03:57.926Z,57.96
2022-09-16T15:10:21.932Z,57.27
2022-09-16T15:13:25.704Z,57.51
2022-09-16T15:16:28.541Z,57.06
2022-09-16T15:19:33.179Z,57.51
2022-09-16T15:22:39.893Z,58.09
2022-09-16T15:25:51.961Z,57.02
2022-09-16T15:28:55.674Z,59.39
2022-09-16T15:32:07.222Z,60.10
2022-09-16T15:35:12.005Z,61.13
2022-09-16T15:38:20.869Z,62.25
2022-09-16T15:41:24.326Z,63.44
2022-09-16T15:44:27.574Z,65.74
2022-09-16T15:47:30.698Z,66.29
2022-09-16T15:50:39.212Z,66.83
2022-09-16T15:53:44.142Z,67.46
2022-09-16T15:56:53.343Z,67.78
2022-09-16T16:00:06.833Z,68.52
2022-09-16T16:03:17.954Z,68.48
2022-09-16T16:06:20.348Z,68.56
2022-09-16T16:09:37.073Z,68.67
2022-09-16T16:12:42.836Z,68.60
2022-09-16T16:19:02.063Z,68.36
2022-09-16T16:22:10.430Z,68.27
2022-09-16T16:25:13.726Z,67.80
2022-09-16T16:28:21.415Z,67.72
2022-09-16T16:31:25.981Z,66.39
2022-09-16T16:34:28.041Z,66.17
2022-09-16T16:37:47.253Z,65.52
2022-09-16T16:40:50.260Z,65.42
2022-09-16T16:43:53.902Z,65.22
2022-09-16T16:46:56.293Z,64.06
2022-09-16T16:50:00.891Z,64.73
2022-09-16T16:53:02.566Z,64.54
2022-09-16T16:56:06.171Z,64.96
2022-09-16T17:03:12.755Z,65.27
2022-09-16T17:06:15.089Z,65.47
2022-09-16T17:09:17.211Z,65.79
2022-09-16T17:12:18.696Z,65.76
2022-09-16T17:18:33.573Z,66.77
2022-09-16T17:24:49.360Z,67.33
2022-09-16T17:27:51.444Z,67.77
2022-09-16T17:30:56.550Z,68.01
2022-09-16T17:43:51.632Z,72.63
2022-09-16T17:47:15.855Z,74.36
2022-09-16T18:16:22.287Z,78.97
2022-09-16T18:29:14.256Z,78.16
2022-09-16T18:32:17.563Z,78.01
2022-09-16T18:35:19.461Z,77.93
2022-09-16T18:38:21.406Z,78.28
2022-09-16T18:44:33.754Z,78.65
2022-09-16T18:50:54.199Z,77.09
2022-09-16T19:10:28.249Z,75.13
2022-09-16T19:13:30.203Z,76.04
2022-09-16T19:16:32.599Z,76.11
2022-09-16T19:19:34.779Z,76.74
2022-09-16T19:45:30.520Z,83.88
2022-09-16T19:48:33.408Z,84.37
2022-09-16T19:51:35.364Z,84.64
2022-09-16T19:54:37.125Z,85.40
2022-09-16T19:57:38.934Z,85.98
2022-09-16T20:00:55.851Z,86.45
2022-09-16T20:03:58.305Z,87.36
2022-09-16T20:07:00.179Z,87.38
2022-09-16T20:10:01.966Z,86.82
2022-09-16T20:13:03.857Z,87.28
2022-09-16T20:16:07.822Z,87.79
2022-09-16T20:19:13.726Z,88.63
2022-09-16T20:22:15.534Z,89.12
2022-09-16T20:25:40.736Z,89.23
2022-09-16T20:28:44.375Z,89.49
2022-09-16T20:31:49.237Z,90.47
2022-09-16T20:34:51.266Z,90.80
2022-09-16T20:37:53.143Z,90.57
2022-09-16T20:40:55.229Z,91.75
2022-09-16T20:44:03.311Z,92.69
2022-09-16T20:47:07.664Z,91.84
2022-09-16T20:50:10.205Z,92.82
2022-09-16T20:53:12.125Z,92.51
2022-09-16T20:56:14.721Z,93.39
2022-09-16T20:59:17.339Z,93.60
2022-09-16T21:02:20.754Z,94.10
2022-09-16T21:05:22.693Z,94.43
2022-09-16T21:08:24.726Z,94.37
2022-09-16T21:11:28.252Z,94.87
2022-09-16T21:14:32.811Z,95.42
2022-09-16T21:17:36.804Z,95.32
2022-09-16T21:20:38.304Z,95.57
2022-09-16T21:23:40.482Z,96.02
2022-09-16T21:26:44.007Z,96.66
2022-09-16T21:29:45.811Z,96.14
2022-09-16T21:32:48.764Z,96.47
2022-09-16T21:35:51.123Z,96.89
2022-09-16T21:38:52.913Z,97.33
2022-09-16T21:41:54.655Z,96.84
2022-09-16T21:44:58.812Z,96.79
2022-09-16T21:48:02.096Z,96.73
2022-09-16T21:51:08.917Z,97.23
2022-09-16T21:54:10.769Z,97.65
2022-09-16T21:57:14.510Z,97.68
2022-09-16T22:00:16.518Z,97.94
2022-09-16T22:03:19.693Z,97.77
2022-09-16T22:06:27.824Z,97.68
2022-09-16T22:09:29.996Z,98.19
2022-09-16T22:12:33.039Z,98.47
2022-09-16T22:15:34.969Z,98.26
2022-09-16T22:18:38.789Z,98.48
2022-09-16T22:21:43.030Z,98.40
2022-09-16T22:24:45.038Z,98.40
2022-09-16T22:27:46.575Z,98.93
2022-09-16T22:30:48.332Z,98.57
2022-09-16T22:33:54.653Z,98.82
2022-09-16T22:36:59.091Z,98.81
2022-09-16T22:40:01.169Z,99.00
2022-09-16T22:43:03.252Z,99.16
2022-09-16T22:46:05.237Z,99.30
2022-09-16T22:49:08.521Z,99.07
2022-09-16T22:52:10.633Z,99.46
2022-09-16T22:55:17.059Z,99.25
2022-09-16T22:58:24.155Z,99.08
2022-09-16T23:01:27.655Z,99.40
2022-09-16T23:04:31.654Z,99.95
2022-09-16T23:07:33.849Z,99.87
2022-09-16T23:10:36.893Z,99.75
2022-09-16T23:13:42.648Z,100.00
2022-09-16T23:16:44.233Z,100.00
2022-09-16T23:19:47.273Z,100.00
2022-09-16T23:22:49.042Z,100.00
2022-09-16T23:25:50.615Z,100.00
2022-09-16T23:28:52.805Z,100.00
2022-09-16T23:31:54.870Z,100.00
2022-09-16T23:34:57.707Z,100.00
2022-09-16T23:37:59.263Z,100.00
2022-09-16T23:41:03.402Z,100.00
2022-09-16T23:44:05.732Z,100.00
2022-09-16T23:47:07.423Z,100.00
2022-09-16T23:50:11.314Z,100.00
2022-09-16T23:53:13.300Z,100.00
2022-09-16T23:56:15.977Z,100.00
2022-09-16T23:59:20.421Z,100.00
